createdAt,value
2023-11-20T00:01:08.816Z,2.90
2023-11-20T00:03:41.812Z,3.65
2023-11-20T00:06:16.265Z,3.88
2023-11-20T00:08:49.228Z,3.50
2023-11-20T00:11:22.290Z,4.22
2023-11-20T00:13:55.081Z,2.85
2023-11-20T00:16:28.462Z,3.45
2023-11-20T00:19:01.304Z,2.53
2023-11-20T00:21:36.505Z,2.75
2023-11-20T00:24:09.801Z,2.67
2023-11-20T00:26:42.513Z,3.10
2023-11-20T00:29:17.125Z,2.72
2023-11-20T00:31:50.151Z,3.80
2023-11-20T00:34:23.178Z,2.67
2023-11-20T00:36:57.442Z,3.38
2023-11-20T00:39:30.280Z,3.03
2023-11-20T00:42:03.080Z,3.20
2023-11-20T00:44:37.190Z,3.40
2023-11-20T00:47:10.210Z,3.90
2023-11-20T00:49:43.279Z,3.58
2023-11-20T00:52:17.697Z,3.72
2023-11-20T00:54:50.484Z,4.38
2023-11-20T00:57:23.431Z,3.88
2023-11-20T00:59:56.669Z,4.40
2023-11-20T01:02:30.022Z,3.67
2023-11-20T01:05:02.997Z,4.55
2023-11-20T01:07:37.084Z,4.80
2023-11-20T01:10:10.469Z,5.35
2023-11-20T01:12:43.272Z,4.72
2023-11-20T01:15:16.134Z,4.95
2023-11-20T01:17:49.945Z,4.50
2023-11-20T01:20:22.737Z,3.90
2023-11-20T01:22:57.009Z,4.68
2023-11-20T01:25:32.589Z,4.60
2023-11-20T01:28:05.938Z,3.90
2023-11-20T01:30:39.206Z,4.47
2023-11-20T01:33:15.246Z,4.28
2023-11-20T01:35:50.599Z,3.72
2023-11-20T01:38:24.831Z,4.63
2023-11-20T01:43:30.837Z,4.30
2023-11-20T01:46:08.383Z,4.05
2023-11-20T01:48:41.599Z,4.38
2023-11-20T01:51:14.966Z,4.10
2023-11-20T01:53:50.148Z,4.47
2023-11-20T01:56:22.922Z,4.45
2023-11-20T01:58:56.414Z,4.90
2023-11-20T02:01:29.391Z,4.70
2023-11-20T02:04:03.938Z,4.18
2023-11-20T02:06:36.758Z,4.43
2023-11-20T02:09:11.852Z,5.07
2023-11-20T02:11:45.881Z,4.45
2023-11-20T02:14:18.635Z,4.43
2023-11-20T02:16:51.458Z,4.65
2023-11-20T02:19:24.976Z,4.60
2023-11-20T02:21:58.707Z,4.38
2023-11-20T02:24:33.183Z,4.82
2023-11-20T02:27:15.460Z,5.10
2023-11-20T02:29:53.180Z,3.90
2023-11-20T02:32:25.990Z,4.68
2023-11-20T02:34:58.962Z,4.50
2023-11-20T02:37:31.846Z,4.07
2023-11-20T02:40:07.149Z,4.05
2023-11-20T02:42:40.533Z,4.32
2023-11-20T02:45:15.000Z,5.07
2023-11-20T02:47:47.834Z,4.80
2023-11-20T02:50:20.841Z,5.70
2023-11-20T02:52:54.303Z,4.85
2023-11-20T02:55:27.366Z,4.88
2023-11-20T02:58:01.020Z,5.00
2023-11-20T03:00:35.150Z,4.95
2023-11-20T03:03:08.893Z,5.50
2023-11-20T03:05:41.900Z,5.60
2023-11-20T03:08:15.040Z,5.68
2023-11-20T03:10:47.946Z,6.10
2023-11-20T03:13:24.664Z,5.10
2023-11-20T03:15:58.938Z,5.55
2023-11-20T03:18:32.504Z,5.70
2023-11-20T03:21:05.912Z,5.32
2023-11-20T03:23:38.676Z,5.78
2023-11-20T03:26:11.663Z,5.10
2023-11-20T03:28:44.486Z,4.78
2023-11-20T03:31:18.744Z,4.63
2023-11-20T03:33:51.969Z,4.68
2023-11-20T03:36:28.364Z,4.80
2023-11-20T03:39:01.253Z,4.55
2023-11-20T03:41:34.540Z,4.10
2023-11-20T03:44:07.813Z,4.63
2023-11-20T03:46:42.141Z,4.88
2023-11-20T03:49:15.131Z,4.32
2023-11-20T03:51:48.069Z,4.65
2023-11-20T03:54:21.223Z,4.00
2023-11-20T03:56:53.882Z,4.30
2023-11-20T03:59:26.697Z,5.10
2023-11-20T04:02:01.225Z,5.07
2023-11-20T04:04:34.659Z,4.13
2023-11-20T04:07:08.209Z,3.83
2023-11-20T04:09:41.233Z,3.47
2023-11-20T04:12:13.949Z,3.90
2023-11-20T04:14:46.581Z,4.45
2023-11-20T04:17:21.928Z,3.65
2023-11-20T04:19:58.370Z,3.78
2023-11-20T04:22:31.741Z,4.20
2023-11-20T04:25:06.449Z,3.80
2023-11-20T04:27:39.531Z,3.58
2023-11-20T04:30:12.574Z,4.03
2023-11-20T04:32:47.136Z,4.00
2023-11-20T04:35:20.005Z,4.05
2023-11-20T04:37:52.881Z,3.83
2023-11-20T04:40:26.386Z,3.25
2023-11-20T04:42:59.071Z,3.92
2023-11-20T04:45:32.785Z,3.72
2023-11-20T04:48:07.473Z,3.78
2023-11-20T04:50:40.217Z,3.90
2023-11-20T04:53:13.545Z,3.85
2023-11-20T04:55:46.413Z,4.18
2023-11-20T04:58:23.213Z,4.05
2023-11-20T05:00:56.283Z,4.30
2023-11-20T05:03:30.756Z,4.57
2023-11-20T05:06:04.296Z,4.50
2023-11-20T05:08:37.215Z,4.10
2023-11-20T05:11:10.219Z,4.38
2023-11-20T05:13:43.275Z,4.50
2023-11-20T05:16:16.184Z,5.57
2023-11-20T05:18:50.776Z,4.32
2023-11-20T05:21:23.502Z,4.65
2023-11-20T05:23:56.330Z,5.25
2023-11-20T05:26:29.011Z,4.40
2023-11-20T05:29:02.317Z,4.53
2023-11-20T05:31:35.228Z,5.68
2023-11-20T05:34:10.050Z,5.22
2023-11-20T05:36:43.156Z,4.93
2023-11-20T05:39:18.831Z,6.03
2023-11-20T05:41:51.855Z,4.68
2023-11-20T05:44:24.695Z,4.45
2023-11-20T05:46:58.195Z,4.30
2023-11-20T05:49:32.368Z,5.13
2023-11-20T05:52:05.937Z,5.30
2023-11-20T05:54:39.119Z,4.85
2023-11-20T05:57:12.316Z,4.55
2023-11-20T05:59:48.720Z,4.80
2023-11-20T06:02:21.509Z,5.10
2023-11-20T06:04:55.544Z,6.13
2023-11-20T06:07:28.412Z,4.50
2023-11-20T06:10:01.349Z,4.95
2023-11-20T06:12:34.094Z,5.47
2023-11-20T06:15:07.389Z,5.82
2023-11-20T06:17:40.700Z,5.20
2023-11-20T06:20:15.530Z,4.63
2023-11-20T06:22:48.251Z,5.97
2023-11-20T06:25:21.868Z,4.70
2023-11-20T06:27:54.721Z,4.45
2023-11-20T06:30:27.898Z,4.18
2023-11-20T06:33:00.650Z,4.57
2023-11-20T06:35:34.795Z,4.50
2023-11-20T06:38:08.127Z,5.22
2023-11-20T06:40:41.136Z,4.75
2023-11-20T06:43:14.649Z,5.10
2023-11-20T06:45:47.622Z,5.88
2023-11-20T06:48:20.372Z,6.65
2023-11-20T06:50:54.804Z,5.72
2023-11-20T06:53:28.177Z,6.03
2023-11-20T06:56:00.885Z,5.30
2023-11-20T06:58:35.334Z,6.18
2023-11-20T07:01:09.217Z,5.70
2023-11-20T07:03:44.239Z,6.05
2023-11-20T07:06:22.342Z,5.88
2023-11-20T07:08:56.440Z,6.93
2023-11-20T07:11:29.204Z,7.25
2023-11-20T07:14:01.847Z,6.57
2023-11-20T07:16:34.636Z,7.32
2023-11-20T07:19:08.221Z,7.15
2023-11-20T07:21:45.154Z,7.10
2023-11-20T07:24:18.140Z,6.85
2023-11-20T07:26:50.871Z,6.20
2023-11-20T07:29:23.549Z,6.50
2023-11-20T07:31:56.807Z,6.85
2023-11-20T07:34:29.764Z,7.05
2023-11-20T07:37:03.863Z,6.32
2023-11-20T07:39:37.927Z,7.15
2023-11-20T07:42:10.701Z,7.10
2023-11-20T07:44:45.016Z,7.13
2023-11-20T07:47:17.744Z,6.57
2023-11-20T07:49:50.608Z,6.82
2023-11-20T07:52:25.785Z,6.88
2023-11-20T07:54:58.504Z,6.53
2023-11-20T07:57:31.164Z,5.80
2023-11-20T08:00:05.523Z,6.97
2023-11-20T08:02:46.826Z,6.38
2023-11-20T08:05:20.792Z,6.13
2023-11-20T08:07:55.335Z,7.20
2023-11-20T08:10:28.305Z,7.15
2023-11-20T08:13:01.268Z,6.32
2023-11-20T08:15:34.062Z,6.72
2023-11-20T08:18:07.743Z,6.22
2023-11-20T08:20:40.947Z,6.38
2023-11-20T08:23:15.088Z,6.22
2023-11-20T08:25:47.759Z,6.00
2023-11-20T08:28:20.580Z,6.80
2023-11-20T08:30:53.627Z,7.25
2023-11-20T08:33:26.659Z,10.43
2023-11-20T08:35:59.425Z,5.95
2023-11-20T08:38:34.176Z,6.55
2023-11-20T08:41:06.933Z,27.70
2023-11-20T08:43:41.034Z,10.18
2023-11-20T08:46:15.987Z,5.75
2023-11-20T08:48:49.250Z,6.43
2023-11-20T08:51:22.250Z,6.28
2023-11-20T08:53:56.792Z,5.80
2023-11-20T08:56:29.576Z,5.75
2023-11-20T08:59:02.251Z,5.95
2023-11-20T09:01:35.966Z,5.97
2023-11-20T09:04:11.354Z,6.43
2023-11-20T09:06:45.384Z,5.43
2023-11-20T09:09:19.843Z,5.63
2023-11-20T09:14:25.727Z,5.38
2023-11-20T09:16:58.951Z,5.70
2023-11-20T09:19:31.935Z,5.70
2023-11-20T09:22:05.709Z,6.20
2023-11-20T09:24:41.389Z,5.60
2023-11-20T09:27:15.620Z,6.43
2023-11-20T09:29:48.327Z,5.03
2023-11-20T09:32:21.153Z,5.63
2023-11-20T09:34:53.854Z,5.95
2023-11-20T09:37:28.853Z,7.10
2023-11-20T09:40:05.711Z,6.60
2023-11-20T09:42:40.952Z,6.00
2023-11-20T09:45:28.419Z,5.80
2023-11-20T09:48:01.866Z,6.20
2023-11-20T09:50:36.349Z,6.47
2023-11-20T09:53:10.512Z,13.32
2023-11-20T09:55:44.890Z,17.13
2023-11-20T09:58:17.693Z,15.40
2023-11-20T10:00:51.474Z,17.33
2023-11-20T10:03:24.925Z,5.97
2023-11-20T10:06:00.499Z,6.15
2023-11-20T10:08:35.923Z,5.45
2023-11-20T10:11:12.810Z,6.15
2023-11-20T10:13:45.655Z,6.15
2023-11-20T10:16:20.952Z,5.43
2023-11-20T10:18:55.020Z,5.63
2023-11-20T10:21:30.163Z,4.93
2023-11-20T10:24:03.670Z,5.10
2023-11-20T10:26:38.372Z,6.97
2023-11-20T10:29:11.293Z,5.57
2023-11-20T10:31:44.780Z,6.38
2023-11-20T10:34:19.324Z,5.72
2023-11-20T10:37:05.151Z,5.47
2023-11-20T10:39:38.564Z,4.60
2023-11-20T10:42:14.405Z,5.53
2023-11-20T10:44:47.402Z,4.97
2023-11-20T10:47:21.357Z,5.20
2023-11-20T10:49:54.726Z,4.10
2023-11-20T10:52:30.373Z,5.18
2023-11-20T10:55:03.449Z,5.05
2023-11-20T10:57:38.175Z,4.50
2023-11-20T11:00:13.530Z,5.10
2023-11-20T11:02:46.839Z,5.03
2023-11-20T11:05:21.188Z,4.60
2023-11-20T11:07:55.020Z,4.80
2023-11-20T11:10:28.569Z,4.45
2023-11-20T11:13:02.998Z,4.53
2023-11-20T11:15:36.515Z,4.25
2023-11-20T11:18:10.438Z,3.80
2023-11-20T11:20:45.158Z,3.43
2023-11-20T11:23:24.361Z,3.50
2023-11-20T11:26:01.828Z,4.35
2023-11-20T11:28:35.904Z,3.88
2023-11-20T11:46:20.527Z,3.53
2023-11-20T12:20:14.736Z,3.63
2023-11-20T12:38:57.700Z,4.00
2023-11-20T12:41:31.128Z,4.68
2023-11-20T12:44:04.492Z,5.50
2023-11-20T12:46:37.318Z,4.78
2023-11-20T12:49:10.638Z,3.35
2023-11-20T12:51:43.743Z,5.85
2023-11-20T12:54:19.554Z,5.10
2023-11-20T12:56:53.756Z,3.70
2023-11-20T12:59:26.548Z,3.10
2023-11-20T13:01:59.564Z,2.63
2023-11-20T13:04:35.647Z,2.78
2023-11-20T13:07:10.356Z,2.95
2023-11-20T13:09:44.414Z,2.25
2023-11-20T13:12:18.420Z,3.07
2023-11-20T13:15:00.903Z,3.17
2023-11-20T13:17:35.827Z,3.42
2023-11-20T13:20:23.660Z,2.65
2023-11-20T13:22:56.857Z,2.90
2023-11-20T13:25:31.068Z,3.22
2023-11-20T13:28:05.681Z,3.00
2023-11-20T13:30:54.044Z,2.88
2023-11-20T13:33:27.466Z,3.42
2023-11-20T13:36:01.000Z,2.63
2023-11-20T13:38:34.339Z,2.58
2023-11-20T13:41:09.710Z,2.50
2023-11-20T13:43:43.083Z,2.53
2023-11-20T13:46:16.540Z,2.08
2023-11-20T13:48:49.239Z,2.13
2023-11-20T13:51:21.899Z,2.03
2023-11-20T13:53:54.993Z,2.30
2023-11-20T13:56:29.015Z,2.60
2023-11-20T13:59:01.886Z,2.30
2023-11-20T14:01:34.773Z,1.83
2023-11-20T14:04:10.610Z,2.47
2023-11-20T14:06:43.835Z,2.30
2023-11-20T14:09:16.612Z,1.98
2023-11-20T14:11:53.239Z,1.90
2023-11-20T14:14:27.605Z,2.40
2023-11-20T14:17:00.334Z,2.22
2023-11-20T14:19:33.689Z,2.25
2023-11-20T14:22:06.725Z,2.65
2023-11-20T14:24:39.860Z,2.00
2023-11-20T14:27:14.246Z,3.17
2023-11-20T14:29:46.944Z,2.28
2023-11-20T14:32:19.776Z,2.20
2023-11-20T14:34:52.560Z,2.38
2023-11-20T14:37:25.256Z,2.63
2023-11-20T14:39:58.129Z,2.63
2023-11-20T14:42:32.750Z,1.83
2023-11-20T14:47:40.129Z,1.90
2023-11-20T14:50:14.469Z,2.10
2023-11-20T14:52:48.577Z,1.60
2023-11-20T14:55:21.590Z,2.35
2023-11-20T14:57:55.701Z,3.28
2023-11-20T15:00:28.503Z,3.03
2023-11-20T15:03:01.365Z,3.10
2023-11-20T15:05:34.827Z,3.97
2023-11-20T15:08:07.553Z,2.08
2023-11-20T15:10:40.665Z,2.42
2023-11-20T15:13:14.854Z,2.65
2023-11-20T15:15:47.698Z,2.20
2023-11-20T15:18:21.759Z,2.15
2023-11-20T15:20:54.465Z,2.65
2023-11-20T15:23:27.824Z,3.15
2023-11-20T15:26:00.851Z,3.25
2023-11-20T15:28:42.517Z,2.70
2023-11-20T15:31:18.073Z,2.67
2023-11-20T15:33:53.921Z,2.72
2023-11-20T15:36:29.409Z,2.33
2023-11-20T15:39:05.358Z,3.13
2023-11-20T15:41:39.902Z,2.70
2023-11-20T15:44:13.906Z,3.22
2023-11-20T15:46:49.252Z,2.60
2023-11-20T15:49:22.250Z,2.83
2023-11-20T15:51:55.047Z,3.17
2023-11-20T15:54:28.571Z,2.60
2023-11-20T15:57:01.273Z,2.80
2023-11-20T15:59:37.016Z,2.88
2023-11-20T16:02:10.726Z,2.80
2023-11-20T16:04:43.621Z,2.90
2023-11-20T16:07:17.037Z,3.10
2023-11-20T16:09:49.831Z,3.42
2023-11-20T16:12:22.567Z,3.28
2023-11-20T16:14:56.639Z,3.47
2023-11-20T16:17:29.486Z,3.95
2023-11-20T16:20:02.216Z,4.60
2023-11-20T16:22:34.939Z,5.40
2023-11-20T16:25:10.477Z,5.25
2023-11-20T16:27:43.404Z,7.57
2023-11-20T16:30:19.654Z,6.95
2023-11-20T16:32:52.432Z,8.35
2023-11-20T16:35:26.154Z,6.45
2023-11-20T16:38:02.272Z,8.23
2023-11-20T16:40:36.039Z,7.45
2023-11-20T16:43:09.069Z,9.37
2023-11-20T16:45:43.400Z,7.18
2023-11-20T16:48:17.153Z,6.57
2023-11-20T16:50:49.782Z,6.95
2023-11-20T16:53:22.834Z,6.10
2023-11-20T16:55:55.660Z,7.13
2023-11-20T16:58:28.588Z,7.63
2023-11-20T17:01:03.840Z,8.52
2023-11-20T17:03:36.642Z,8.27
2023-11-20T17:06:09.440Z,8.65
2023-11-20T17:08:43.964Z,8.93
2023-11-20T17:11:16.757Z,7.50
2023-11-20T17:13:49.623Z,8.90
2023-11-20T17:16:24.355Z,8.20
2023-11-20T17:18:57.178Z,9.43
2023-11-20T17:21:29.862Z,11.10
2023-11-20T17:24:02.558Z,8.45
2023-11-20T17:26:36.571Z,7.88
2023-11-20T17:29:10.064Z,7.28
2023-11-20T17:31:45.028Z,6.82
2023-11-20T17:37:16.189Z,7.53
2023-11-20T17:39:52.212Z,7.93
2023-11-20T17:42:24.902Z,8.05
2023-11-20T17:44:58.705Z,7.38
2023-11-20T17:47:33.156Z,7.55
2023-11-20T17:50:08.914Z,8.07
2023-11-20T17:52:41.788Z,7.18
2023-11-20T17:55:15.331Z,7.03
2023-11-20T17:57:48.125Z,7.80
2023-11-20T18:00:21.423Z,6.90
2023-11-20T18:02:55.842Z,6.82
2023-11-20T18:05:30.330Z,6.78
2023-11-20T18:08:03.096Z,6.68
2023-11-20T18:10:36.816Z,6.40
2023-11-20T18:13:09.710Z,5.88
2023-11-20T18:15:43.458Z,6.35
2023-11-20T18:18:18.103Z,6.95
2023-11-20T18:20:50.902Z,7.55
2023-11-20T18:23:23.586Z,6.82
2023-11-20T18:25:56.485Z,7.43
2023-11-20T18:28:29.681Z,7.47
2023-11-20T18:31:02.484Z,7.15
2023-11-20T18:33:37.092Z,6.78
2023-11-20T18:36:14.080Z,6.22
2023-11-20T18:38:46.783Z,7.30
2023-11-20T18:41:20.050Z,7.43
2023-11-20T18:43:52.723Z,7.75
2023-11-20T18:46:27.720Z,7.78
2023-11-20T18:49:02.067Z,6.57
2023-11-20T18:51:34.968Z,7.88
2023-11-20T18:54:08.033Z,7.80
2023-11-20T18:56:40.758Z,8.10
2023-11-20T18:59:13.923Z,7.45
2023-11-20T19:01:51.913Z,8.48
2023-11-20T19:04:26.169Z,7.18
2023-11-20T19:06:58.870Z,8.82
2023-11-20T19:09:32.136Z,8.55
2023-11-20T19:12:05.235Z,8.27
2023-11-20T19:14:38.963Z,11.30
2023-11-20T19:17:13.014Z,9.65
2023-11-20T19:19:47.231Z,8.25
2023-11-20T19:22:21.115Z,5.97
2023-11-20T19:24:54.134Z,5.75
2023-11-20T19:27:26.906Z,5.43
2023-11-20T19:30:01.894Z,6.85
2023-11-20T19:32:35.629Z,6.20
2023-11-20T19:35:10.098Z,5.90
2023-11-20T19:37:44.391Z,5.93
2023-11-20T19:40:17.925Z,6.10
2023-11-20T19:42:51.465Z,5.82
2023-11-20T19:45:26.078Z,5.50
2023-11-20T19:47:58.851Z,5.97
2023-11-20T19:50:32.951Z,5.93
2023-11-20T19:53:06.990Z,5.70
2023-11-20T19:55:40.737Z,5.73
2023-11-20T19:58:13.620Z,6.45
2023-11-20T20:00:46.395Z,8.10
2023-11-20T20:03:19.667Z,8.70
2023-11-20T20:05:54.014Z,8.27
2023-11-20T20:08:26.781Z,6.90
2023-11-20T20:11:00.792Z,8.38
2023-11-20T20:13:33.548Z,7.03
2023-11-20T20:16:07.313Z,7.30
2023-11-20T20:18:42.084Z,6.97
2023-11-20T20:21:16.533Z,6.53
2023-11-20T20:23:52.347Z,6.78
2023-11-20T20:26:31.743Z,5.45
2023-11-20T20:29:04.842Z,5.75
2023-11-20T20:31:38.804Z,6.60
2023-11-20T20:34:11.939Z,5.97
2023-11-20T20:36:46.156Z,6.40
2023-11-20T20:39:19.329Z,5.73
2023-11-20T20:41:52.432Z,5.90
2023-11-20T20:44:25.230Z,5.60
2023-11-20T20:46:58.657Z,6.18
2023-11-20T20:49:31.622Z,7.35
2023-11-20T20:52:06.190Z,6.90
2023-11-20T20:54:42.895Z,6.53
2023-11-20T20:57:15.646Z,6.70
2023-11-20T20:59:48.658Z,5.88
2023-11-20T21:02:21.737Z,5.68
2023-11-20T21:04:54.730Z,6.00
2023-11-20T21:07:29.562Z,5.85
2023-11-20T21:10:02.268Z,8.50
2023-11-20T21:12:35.372Z,6.60
2023-11-20T21:15:08.565Z,7.15
2023-11-20T21:17:43.361Z,7.97
2023-11-20T21:20:17.267Z,9.00
2023-11-20T21:22:51.407Z,7.30
2023-11-20T21:25:24.760Z,13.23
2023-11-20T21:27:58.438Z,11.43
2023-11-20T21:30:31.186Z,7.28
2023-11-20T21:33:05.150Z,9.77
2023-11-20T21:35:47.423Z,9.75
2023-11-20T21:38:24.871Z,9.18
2023-11-20T21:40:57.853Z,11.05
2023-11-20T21:43:30.562Z,9.13
2023-11-20T21:46:03.481Z,7.18
2023-11-20T21:48:36.273Z,7.57
2023-11-20T21:51:09.822Z,7.63
2023-11-20T21:53:43.960Z,8.15
2023-11-20T21:56:16.778Z,13.27
2023-11-20T21:58:50.994Z,10.50
2023-11-20T22:01:25.056Z,9.00
2023-11-20T22:03:58.376Z,10.67
2023-11-20T22:06:31.202Z,10.55
2023-11-20T22:09:05.606Z,9.30
2023-11-20T22:11:40.721Z,9.02
2023-11-20T22:16:47.042Z,11.90
2023-11-20T22:19:19.921Z,10.43
2023-11-20T22:21:52.757Z,11.23
2023-11-20T22:24:29.303Z,10.88
2023-11-20T22:27:01.977Z,10.40
2023-11-20T22:29:35.401Z,11.63
2023-11-20T22:32:09.125Z,11.23
2023-11-20T22:34:42.385Z,11.02
2023-11-20T22:37:16.576Z,10.13
2023-11-20T22:39:53.517Z,11.43
2023-11-20T22:42:26.288Z,11.60
2023-11-20T22:44:58.969Z,11.38
2023-11-20T22:47:31.696Z,10.88
2023-11-20T22:50:07.847Z,10.88
2023-11-20T22:52:40.704Z,9.75
2023-11-20T22:55:14.805Z,9.18
2023-11-20T22:57:47.983Z,10.07
2023-11-20T23:00:26.438Z,11.43
2023-11-20T23:02:59.684Z,9.88
2023-11-20T23:05:32.501Z,10.40
2023-11-20T23:08:05.417Z,10.43
2023-11-20T23:10:39.819Z,10.77
2023-11-20T23:13:13.370Z,10.85
2023-11-20T23:15:47.847Z,11.15
2023-11-20T23:18:21.378Z,11.57
2023-11-20T23:20:54.181Z,11.45
2023-11-20T23:23:27.749Z,11.45
2023-11-20T23:26:02.239Z,10.38
2023-11-20T23:28:36.280Z,11.30
2023-11-20T23:31:09.653Z,12.00
2023-11-20T23:33:43.934Z,11.13
2023-11-20T23:36:16.597Z,11.50
2023-11-20T23:38:49.306Z,11.38
2023-11-20T23:41:23.373Z,11.45
2023-11-20T23:43:56.121Z,11.20
2023-11-20T23:46:32.524Z,10.25
2023-11-20T23:49:08.176Z,9.98
2023-11-20T23:51:41.491Z,10.98
2023-11-20T23:54:14.250Z,11.13
2023-11-20T23:56:48.330Z,9.63
2023-11-20T23:59:21.522Z,10.98
